KSGF/SGF METAR and TAF weather

Enter ICAO airport designator
Station Type Date Time Source
KSGF METAR 2019/02/23 00:52 UTC NOAA

KSGF 230052Z 13010KT 4SM BR OVC003 05/04 A3003 RMK AO2 RAB22E33 SLP176 P0000 T00500039


Station Type Date Time Source
KSGF Decoded METAR 2019/02/23 00:52 UTC NOAA

SPRINGFIELD-BRANSON NATIONAL, MO, United States (KSGF) 37-14N 93-23W 389M
Feb 22, 2019 - 07:52 PM EST / 2019.02.23 0052 UTC
Wind: from the SE (130 degrees) at 12 MPH (10 KT):0
Visibility: 4 mile(s):0
Sky conditions: overcast
Weather: mist
Precipitation last hour: A trace
Temperature: 41.0 F (5.0 C)
Dew Point: 39.0 F (3.9 C)
Relative Humidity: 92%
Pressure (altimeter): 30.03 in. Hg (1016 hPa)
ob: KSGF 230052Z 13010KT 4SM BR OVC003 05/04 A3003 RMK AO2 RAB22E33 SLP176 P0000 T00500039
cycle: 1

Station Type Date Time Source
KSGF TAF 2019/02/22 18:22 UTC NOAA

TAF KSGF 221720Z 2218/2318 10009KT 5SM BR OVC008
TEMPO 2218/2220 2SM -RA BR
FM230000 12012KT P6SM OVC008 WS020/16050KT
FM230600 12010KT 6SM BR OVC003 WS020/16050KT PROB30 2306/2310 2SM -RA BR OVC001
FM231200 14011KT 4SM -RA BR OVC008 WS020/20030KT
FM231600 14011G21KT 5SM -RA BKN010


Example: see airport list